Time;durP1;ratioP1;P1;durP2;ratioP2;P2;SDS_P1;SDS_P2;PMS_P1;PMS_P2;Temp;Humidity;BMP_temperature;BMP_pressure;BME280_temperature;BME280_humidity;BME280_pressure;Samples;Min_cycle;Max_cycle;Signal;HPM_P1;HPM_P2
2023/10/11 00:00:26;;;;;;;16.23;5.83;;;17.90;99.90;;;;;;7286738;19;20201;-87
2023/10/11 00:03:17;;;;;;;13.27;5.60;;;17.90;99.90;;;;;;7289412;19;23102;-88
2023/10/11 00:05:45;;;;;;;14.27;5.63;;;18.10;99.90;;;;;;7184835;19;2004395;-89
2023/10/11 00:08:13;;;;;;;13.00;5.40;;;18.00;99.90;;;;;;7288249;19;20185;-89
2023/10/11 00:10:54;;;;;;;14.27;5.13;;;18.00;99.90;;;;;;7287460;19;20192;-89
2023/10/11 00:13:21;;;;;;;13.80;4.97;;;17.90;99.90;;;;;;7286612;19;20211;-89
2023/10/11 00:15:49;;;;;;;12.37;5.00;;;17.80;99.90;;;;;;7287858;19;20188;-89
2023/10/11 00:18:20;;;;;;;16.67;5.50;;;17.80;99.90;;;;;;7286071;19;20196;-89
2023/10/11 00:20:51;;;;;;;12.87;4.97;;;17.80;99.90;;;;;;7287828;19;20192;-89
2023/10/11 00:23:21;;;;;;;15.50;5.33;;;17.80;99.90;;;;;;7287483;19;20194;-89
2023/10/11 00:25:50;;;;;;;12.83;4.77;;;17.80;99.90;;;;;;7284715;19;20193;-89
2023/10/11 00:28:22;;;;;;;13.67;5.40;;;17.80;99.90;;;;;;7286669;19;20192;-89
2023/10/11 00:30:52;;;;;;;12.67;5.13;;;17.80;99.90;;;;;;7287215;19;20193;-88
2023/10/11 00:33:18;;;;;;;14.57;5.50;;;17.70;99.90;;;;;;7287257;19;20280;-89
2023/10/11 00:35:47;;;;;;;13.37;5.27;;;17.80;99.90;;;;;;7287259;19;20196;-89
2023/10/11 00:38:20;;;;;;;14.37;5.23;;;17.70;99.90;;;;;;7285336;19;20196;-89
2023/10/11 00:41:00;;;;;;;14.53;5.17;;;17.60;99.90;;;;;;7285930;19;20302;-88
2023/10/11 00:43:37;;;;;;;15.13;5.53;;;17.60;99.90;;;;;;7286718;19;20273;-89
2023/10/11 00:46:08;;;;;;;11.00;4.90;;;17.60;99.90;;;;;;7286807;19;20192;-86
2023/10/11 00:49:23;;;;;;;14.23;5.60;;;17.60;99.90;;;;;;7288597;19;20200;-90
2023/10/11 00:51:32;;;;;;;13.93;5.10;;;17.50;99.90;;;;;;7183782;19;2004697;-86
2023/10/11 00:54:04;;;;;;;14.27;5.40;;;17.50;99.90;;;;;;7288362;19;20670;-87
2023/10/11 00:56:33;;;;;;;15.17;5.80;;;17.50;99.90;;;;;;7287777;19;20240;-88
2023/10/11 00:59:10;;;;;;;16.03;6.03;;;17.50;99.90;;;;;;7286570;19;20205;-87
2023/10/11 01:01:42;;;;;;;17.70;6.00;;;17.50;99.90;;;;;;7288716;19;20188;-87
2023/10/11 01:04:12;;;;;;;15.43;5.73;;;17.50;99.90;;;;;;7277116;19;20192;-88
2023/10/11 01:06:38;;;;;;;15.77;5.63;;;17.50;99.90;;;;;;7298187;19;20188;-88
2023/10/11 01:09:15;;;;;;;13.03;5.70;;;17.60;99.90;;;;;;7311143;19;20185;-87
2023/10/11 01:11:45;;;;;;;13.37;5.60;;;17.60;99.90;;;;;;7185864;19;2004929;-87
2023/10/11 01:14:11;;;;;;;13.10;5.30;;;17.70;99.90;;;;;;7286867;19;20189;-88
2023/10/11 01:16:37;;;;;;;13.63;5.53;;;17.70;99.90;;;;;;7306061;19;20204;-88
2023/10/11 01:19:08;;;;;;;14.07;6.00;;;17.60;99.90;;;;;;7301106;19;20660;-88
2023/10/11 01:21:34;;;;;;;17.27;6.00;;;17.60;99.90;;;;;;7285514;19;20196;-88
2023/10/11 01:24:00;;;;;;;15.57;5.77;;;17.60;99.90;;;;;;7284789;19;20185;-87
2023/10/11 01:26:27;;;;;;;14.87;6.00;;;17.60;99.90;;;;;;7283988;19;20188;-87
2023/10/11 01:28:56;;;;;;;17.13;6.20;;;17.60;99.90;;;;;;7285597;19;20194;-87
2023/10/11 01:31:23;;;;;;;15.40;5.60;;;17.60;99.90;;;;;;7284590;19;20188;-88
2023/10/11 01:33:49;;;;;;;16.83;6.20;;;17.60;99.90;;;;;;7285273;19;20214;-87
2023/10/11 01:36:17;;;;;;;16.67;6.40;;;17.60;99.90;;;;;;7285061;19;20656;-88
2023/10/11 01:38:46;;;;;;;16.77;6.37;;;17.60;99.90;;;;;;7289042;19;20266;-88
2023/10/11 01:41:18;;;;;;;11.73;5.83;;;17.60;99.90;;;;;;7290324;19;20189;-88
2023/10/11 01:43:46;;;;;;;13.13;5.97;;;17.60;99.90;;;;;;7292036;19;20192;-87
2023/10/11 01:46:35;;;;;;;13.97;6.23;;;17.60;99.90;;;;;;7291172;19;20199;-87
2023/10/11 01:49:01;;;;;;;13.33;5.87;;;17.60;99.90;;;;;;7292307;19;20194;-88
2023/10/11 01:51:28;;;;;;;14.53;5.73;;;17.60;99.90;;;;;;7290989;19;20201;-88
2023/10/11 01:53:54;;;;;;;15.53;6.03;;;17.50;99.90;;;;;;7289491;19;20184;-87
2023/10/11 01:56:23;;;;;;;16.60;5.93;;;17.50;99.90;;;;;;7293068;19;20294;-87
2023/10/11 01:58:50;;;;;;;15.93;6.17;;;17.50;99.90;;;;;;7292512;19;20189;-87
2023/10/11 02:01:26;;;;;;;16.83;5.97;;;17.50;99.90;;;;;;7299406;19;20184;-88
2023/10/11 02:03:56;;;;;;;16.17;5.30;;;17.50;99.90;;;;;;7298394;19;20205;-88
2023/10/11 02:06:23;;;;;;;13.90;5.73;;;17.50;99.90;;;;;;7295784;19;20221;-87
2023/10/11 02:08:50;;;;;;;15.23;6.10;;;17.50;99.90;;;;;;7295989;19;20189;-87
2023/10/11 02:11:17;;;;;;;14.13;5.97;;;17.40;99.90;;;;;;7291292;19;20298;-88
2023/10/11 02:13:43;;;;;;;15.33;6.27;;;17.40;99.90;;;;;;7292120;19;20214;-88
2023/10/11 02:16:11;;;;;;;14.43;5.63;;;17.50;99.90;;;;;;7295302;19;20187;-85
2023/10/11 02:18:39;;;;;;;13.10;5.43;;;17.60;99.90;;;;;;7309980;19;20314;-89
2023/10/11 02:21:06;;;;;;;18.93;5.63;;;17.60;99.90;;;;;;7314404;19;20184;-88
2023/10/11 02:23:42;;;;;;;12.87;5.50;;;17.60;99.90;;;;;;7290974;19;20203;-88
2023/10/11 02:26:16;;;;;;;12.87;5.07;;;17.60;99.90;;;;;;7285887;19;20201;-88
2023/10/11 02:28:43;;;;;;;14.60;5.60;;;17.50;99.90;;;;;;7290132;19;20206;-88
2023/10/11 02:31:13;;;;;;;12.33;5.60;;;17.50;99.90;;;;;;7290305;19;20188;-88
2023/10/11 02:33:39;;;;;;;16.80;6.27;;;17.50;99.90;;;;;;7296573;19;20196;-88
2023/10/11 02:36:09;;;;;;;13.40;5.50;;;17.50;99.90;;;;;;7311786;19;20213;-87
2023/10/11 02:38:47;;;;;;;16.73;5.77;;;17.60;99.90;;;;;;7288995;19;20213;-88
2023/10/11 02:41:13;;;;;;;13.73;5.97;;;17.50;99.90;;;;;;7184748;19;2004484;-87
2023/10/11 02:43:48;;;;;;;16.87;5.53;;;17.50;99.90;;;;;;7294827;19;20192;-88
2023/10/11 02:46:15;;;;;;;13.87;5.90;;;17.50;99.90;;;;;;7288669;19;20248;-88
2023/10/11 02:48:46;;;;;;;15.93;5.80;;;17.50;99.90;;;;;;7288812;19;20195;-87
2023/10/11 02:51:24;;;;;;;11.53;5.33;;;17.50;99.90;;;;;;7289663;19;20197;-87
2023/10/11 02:53:53;;;;;;;16.53;5.10;;;17.50;99.90;;;;;;7288265;19;20205;-88
2023/10/11 02:56:19;;;;;;;17.53;5.53;;;17.50;99.90;;;;;;7289204;19;20192;-88
2023/10/11 02:58:46;;;;;;;13.90;5.37;;;17.50;99.90;;;;;;7288246;19;20216;-87
2023/10/11 03:01:16;;;;;;;14.77;5.67;;;17.60;99.90;;;;;;7289166;19;20210;-88
2023/10/11 03:03:43;;;;;;;14.80;5.70;;;17.50;99.90;;;;;;7288862;19;20778;-88
2023/10/11 03:06:10;;;;;;;13.87;5.70;;;17.50;99.90;;;;;;7290614;19;20194;-89
2023/10/11 03:08:37;;;;;;;13.93;5.33;;;17.50;99.90;;;;;;7310868;19;20797;-89
2023/10/11 03:11:09;;;;;;;16.07;5.83;;;17.50;99.90;;;;;;7289409;19;20189;-89
2023/10/11 03:13:44;;;;;;;15.20;5.27;;;17.60;99.90;;;;;;7290129;19;20193;-89
2023/10/11 03:16:13;;;;;;;12.50;5.23;;;17.60;99.90;;;;;;7267727;19;20204;-89
2023/10/11 03:18:40;;;;;;;15.63;5.63;;;17.60;99.90;;;;;;7292435;19;20211;-89
2023/10/11 03:21:20;;;;;;;15.90;5.40;;;17.60;99.90;;;;;;7310530;19;20193;-89
2023/10/11 03:23:54;;;;;;;12.33;5.37;;;17.50;99.90;;;;;;7185406;19;2004380;-89
2023/10/11 03:28:59;;;;;;;12.93;5.27;;;17.60;99.90;;;;;;7288875;19;20185;-89
2023/10/11 03:31:31;;;;;;;13.07;5.67;;;17.60;99.90;;;;;;7285384;19;20193;-89
2023/10/11 03:34:19;;;;;;;14.87;5.60;;;17.60;99.90;;;;;;7287776;19;20184;-89
2023/10/11 03:36:52;;;;;;;15.70;5.90;;;17.50;99.90;;;;;;7185971;19;2004619;-89
2023/10/11 03:44:45;;;;;;;14.10;5.73;;;17.50;99.90;;;;;;7286839;19;20219;-90
2023/10/11 03:47:18;;;;;;;13.37;5.83;;;17.50;99.90;;;;;;7289232;19;20546;-90
2023/10/11 03:52:43;;;;;;;17.70;6.07;;;17.40;99.90;;;;;;7291750;19;20188;-90
2023/10/11 03:55:09;;;;;;;15.93;6.40;;;17.40;99.90;;;;;;7289376;19;20185;-90
2023/10/11 03:57:43;;;;;;;15.70;5.93;;;17.30;99.90;;;;;;7290446;19;20229;-89
2023/10/11 04:02:55;;;;;;;13.83;5.93;;;17.30;99.90;;;;;;7290270;19;20196;-89
2023/10/11 04:05:21;;;;;;;12.37;5.40;;;17.40;99.90;;;;;;7289560;19;20265;-89
2023/10/11 04:07:47;;;;;;;19.73;5.87;;;17.30;99.90;;;;;;7289318;19;21139;-89
2023/10/11 04:10:20;;;;;;;14.33;5.37;;;17.30;99.90;;;;;;7290067;19;20189;-88
2023/10/11 04:12:46;;;;;;;14.50;5.80;;;17.30;99.90;;;;;;7287830;19;20272;-90
2023/10/11 04:15:24;;;;;;;15.07;6.23;;;17.20;99.90;;;;;;7288372;19;20365;-88
2023/10/11 04:17:50;;;;;;;17.17;6.30;;;17.20;99.90;;;;;;7287328;19;20675;-89
2023/10/11 04:20:28;;;;;;;15.00;5.80;;;17.20;99.90;;;;;;7284418;19;20192;-89
2023/10/11 04:23:10;;;;;;;15.00;6.07;;;17.20;99.90;;;;;;7287454;19;20207;-89
2023/10/11 04:25:39;;;;;;;13.53;5.90;;;17.20;99.90;;;;;;7286375;19;20659;-89
2023/10/11 04:28:05;;;;;;;14.97;6.27;;;17.20;99.90;;;;;;7286209;19;20177;-89
2023/10/11 04:30:44;;;;;;;15.63;6.13;;;17.20;99.90;;;;;;7285696;19;20563;-90
2023/10/11 04:33:20;;;;;;;16.37;6.37;;;17.20;99.90;;;;;;7265143;19;20219;-89
2023/10/11 04:35:58;;;;;;;15.40;6.33;;;17.10;99.90;;;;;;7286588;19;20684;-88
2023/10/11 04:38:27;;;;;;;17.63;6.50;;;17.10;99.90;;;;;;7285833;19;20188;-89
2023/10/11 04:40:53;;;;;;;12.77;5.90;;;17.00;99.90;;;;;;7286967;19;20193;-90
2023/10/11 04:43:25;;;;;;;16.50;6.83;;;17.00;99.90;;;;;;7286994;19;20195;-88
2023/10/11 04:46:00;;;;;;;15.83;6.40;;;17.10;99.90;;;;;;7285733;19;20189;-88
2023/10/11 04:48:36;;;;;;;15.13;6.77;;;17.00;99.90;;;;;;7286342;19;20194;-88
2023/10/11 04:59:06;;;;;;;16.67;7.00;;;17.00;99.90;;;;;;7284899;19;20199;-88
2023/10/11 05:04:26;;;;;;;17.23;7.23;;;17.00;99.90;;;;;;7182866;19;2004387;-89
2023/10/11 05:06:55;;;;;;;16.03;6.93;;;17.00;99.90;;;;;;7285016;19;20213;-88
2023/10/11 05:09:38;;;;;;;13.83;7.07;;;16.90;99.90;;;;;;7285200;19;20260;-88
2023/10/11 05:12:19;;;;;;;18.00;6.77;;;16.90;99.90;;;;;;7288634;19;20189;-88
2023/10/11 05:19:55;;;;;;;18.40;6.97;;;16.90;99.90;;;;;;7292786;19;20220;-88
2023/10/11 05:32:48;;;;;;;19.90;6.83;;;17.00;99.90;;;;;;7291837;19;20531;-89
2023/10/11 05:51:27;;;;;;;16.53;6.70;;;17.00;99.90;;;;;;7291690;19;20189;-89
2023/10/11 05:53:59;;;;;;;15.77;7.07;;;17.10;99.90;;;;;;7296465;19;20193;-89
2023/10/11 05:56:25;;;;;;;16.27;6.97;;;17.10;99.90;;;;;;7294584;19;20225;-89
2023/10/11 05:58:52;;;;;;;18.07;7.47;;;17.10;99.90;;;;;;7301943;19;20217;-89
2023/10/11 06:01:21;;;;;;;16.53;7.53;;;17.10;99.90;;;;;;7304609;19;20193;-89
2023/10/11 06:03:56;;;;;;;20.30;8.00;;;17.10;99.90;;;;;;7301305;19;20205;-88
2023/10/11 06:06:23;;;;;;;20.73;7.43;;;17.10;99.90;;;;;;7292435;19;20612;-89
2023/10/11 06:08:53;;;;;;;20.23;7.57;;;17.10;99.90;;;;;;7293062;19;20256;-88
2023/10/11 06:11:20;;;;;;;16.50;7.57;;;17.10;99.90;;;;;;7289171;19;20192;-90
2023/10/11 06:13:50;;;;;;;21.80;8.50;;;17.10;99.90;;;;;;7290213;19;20189;-89
2023/10/11 06:16:16;;;;;;;16.70;8.63;;;17.20;99.90;;;;;;7290890;19;20789;-89
2023/10/11 06:18:52;;;;;;;19.33;9.80;;;17.30;99.90;;;;;;7287069;19;20197;-89
2023/10/11 06:21:24;;;;;;;20.57;9.70;;;17.40;99.90;;;;;;7291583;19;20262;-89
2023/10/11 06:23:53;;;;;;;21.83;10.17;;;17.40;99.90;;;;;;7289385;19;20193;-89
2023/10/11 06:26:28;;;;;;;21.83;10.73;;;17.50;99.90;;;;;;7290343;19;20558;-89
2023/10/11 06:29:03;;;;;;;21.27;10.70;;;17.40;99.90;;;;;;7289666;19;20202;-89
2023/10/11 06:31:43;;;;;;;24.63;12.10;;;17.50;99.90;;;;;;7289158;19;20663;-89
2023/10/11 06:34:16;;;;;;;26.47;12.33;;;17.70;99.90;;;;;;7280423;19;20206;-89
2023/10/11 06:36:51;;;;;;;21.60;12.50;;;17.80;99.90;;;;;;7290223;19;20197;-89
2023/10/11 06:42:46;;;;;;;22.70;11.60;;;18.00;99.90;;;;;;7289398;19;20262;-88
2023/10/11 06:44:57;;;;;;;22.57;11.20;;;18.00;99.90;;;;;;7184186;19;2004449;-88
2023/10/11 06:47:25;;;;;;;23.80;12.20;;;18.10;99.90;;;;;;7289064;19;20197;-88
2023/10/11 06:49:55;;;;;;;25.43;12.03;;;18.20;99.90;;;;;;7290011;19;20222;-89
2023/10/11 06:52:26;;;;;;;23.97;11.80;;;18.30;99.90;;;;;;7288306;19;20270;-89
2023/10/11 06:57:40;;;;;;;21.17;11.13;;;18.70;99.90;;;;;;7284435;19;20192;-88
2023/10/11 07:00:36;;;;;;;20.90;10.53;;;18.90;99.90;;;;;;7290738;19;20188;-89
2023/10/11 07:03:26;;;;;;;22.53;10.40;;;19.30;99.90;;;;;;7185625;19;2004311;-89
2023/10/11 07:05:56;;;;;;;20.87;10.30;;;19.80;99.90;;;;;;7185953;19;2004612;-88
2023/10/11 07:08:31;;;;;;;23.33;10.47;;;20.20;99.90;;;;;;7288944;19;20227;-88
2023/10/11 07:16:19;;;;;;;18.23;9.83;;;20.70;99.90;;;;;;7185718;19;2006064;-89
2023/10/11 07:18:48;;;;;;;21.10;10.70;;;20.60;99.90;;;;;;7286886;19;20190;-88
2023/10/11 07:21:19;;;;;;;20.10;10.53;;;20.20;99.90;;;;;;7286884;19;20193;-89
2023/10/11 07:29:00;;;;;;;23.63;10.53;;;20.20;99.90;;;;;;7288117;19;20206;-88
2023/10/11 07:31:32;;;;;;;25.27;10.30;;;20.20;99.90;;;;;;7287529;19;20217;-89
2023/10/11 07:34:08;;;;;;;17.83;9.73;;;20.40;99.90;;;;;;7288180;19;20208;-89
2023/10/11 07:36:37;;;;;;;20.00;9.83;;;20.50;99.90;;;;;;7285884;19;20225;-89
2023/10/11 07:39:25;;;;;;;21.00;10.03;;;20.70;99.90;;;;;;7285313;19;20211;-89
2023/10/11 07:42:18;;;;;;;20.73;9.53;;;20.70;99.90;;;;;;7185185;19;2004589;-89
2023/10/11 07:44:50;;;;;;;17.60;8.53;;;20.70;99.90;;;;;;7185126;19;2004443;-89
2023/10/11 07:47:16;;;;;;;20.67;8.80;;;20.40;99.90;;;;;;7285622;19;20536;-89
2023/10/11 07:49:43;;;;;;;16.97;7.97;;;20.40;99.90;;;;;;7288177;19;20199;-89
2023/10/11 07:52:09;;;;;;;18.03;8.70;;;20.40;99.90;;;;;;7307827;19;20322;-90
2023/10/11 07:54:41;;;;;;;21.00;8.80;;;20.60;99.90;;;;;;7287630;19;20262;-88
2023/10/11 07:57:15;;;;;;;20.83;8.70;;;20.70;99.90;;;;;;7287888;19;20201;-89
2023/10/11 07:59:45;;;;;;;18.70;8.50;;;20.80;99.90;;;;;;7264702;19;20267;-89
2023/10/11 08:02:26;;;;;;;21.23;8.50;;;20.90;99.90;;;;;;7287438;19;20244;-88
2023/10/11 08:04:57;;;;;;;18.20;8.53;;;21.00;99.90;;;;;;7286444;19;20207;-88
2023/10/11 08:07:23;;;;;;;19.57;8.33;;;21.00;99.90;;;;;;7287534;19;20530;-89
2023/10/11 08:09:52;;;;;;;20.07;7.60;;;21.20;99.90;;;;;;7285651;19;20240;-89
2023/10/11 08:12:22;;;;;;;20.20;7.70;;;21.40;99.90;;;;;;7286085;19;20188;-89
2023/10/11 08:14:48;;;;;;;18.93;9.33;;;21.30;99.90;;;;;;7286524;19;20196;-89
2023/10/11 08:17:14;;;;;;;20.03;10.33;;;21.30;99.90;;;;;;7280675;19;20187;-88
2023/10/11 08:19:44;;;;;;;18.80;9.13;;;21.10;99.90;;;;;;7286154;19;20189;-89
2023/10/11 08:22:16;;;;;;;19.33;6.93;;;21.20;99.90;;;;;;7293642;19;20200;-89
2023/10/11 08:24:47;;;;;;;17.20;7.53;;;21.50;99.90;;;;;;7284143;19;20188;-89
2023/10/11 08:27:14;;;;;;;18.63;7.47;;;21.70;99.90;;;;;;7285989;19;20192;-89
2023/10/11 08:29:43;;;;;;;18.57;7.57;;;21.90;99.90;;;;;;7292100;19;20596;-89
2023/10/11 08:32:13;;;;;;;17.43;7.23;;;22.00;99.90;;;;;;7306610;19;20184;-89
2023/10/11 08:34:48;;;;;;;18.57;7.50;;;22.40;99.90;;;;;;7285322;19;20202;-89
2023/10/11 08:37:14;;;;;;;20.30;8.07;;;22.50;99.90;;;;;;7182676;19;2004579;-89
2023/10/11 08:39:46;;;;;;;16.63;7.93;;;22.50;99.90;;;;;;7290309;19;20189;-89
2023/10/11 08:42:17;;;;;;;17.27;7.87;;;22.70;99.90;;;;;;7286324;19;20192;-89
2023/10/11 08:44:47;;;;;;;18.60;8.20;;;22.60;99.90;;;;;;7284603;19;20189;-89
2023/10/11 08:47:15;;;;;;;19.47;7.93;;;22.60;99.90;;;;;;7289677;19;20192;-89
2023/10/11 08:49:48;;;;;;;19.10;8.17;;;22.40;99.90;;;;;;7293853;19;20203;-88
2023/10/11 08:52:29;;;;;;;19.40;7.73;;;22.40;99.90;;;;;;7283517;19;20185;-89
2023/10/11 08:54:55;;;;;;;21.90;7.70;;;22.50;99.90;;;;;;7291382;19;20195;-89
2023/10/11 08:57:25;;;;;;;19.77;8.20;;;22.40;99.90;;;;;;7292703;19;20196;-89
2023/10/11 08:59:57;;;;;;;17.10;7.73;;;22.40;99.90;;;;;;7293348;19;20541;-90
2023/10/11 09:02:24;;;;;;;18.57;8.10;;;22.50;99.90;;;;;;7292919;19;20222;-89
2023/10/11 09:05:03;;;;;;;16.50;7.10;;;22.60;99.90;;;;;;7294355;19;20185;-90
2023/10/11 09:07:45;;;;;;;16.90;7.97;;;22.80;99.90;;;;;;7293792;19;20209;-89
2023/10/11 09:10:28;;;;;;;19.83;8.00;;;22.70;99.90;;;;;;7270055;19;20213;-90
2023/10/11 09:12:58;;;;;;;18.20;8.13;;;22.60;99.90;;;;;;7291985;19;20196;-89
2023/10/11 09:15:44;;;;;;;21.77;8.20;;;22.60;99.90;;;;;;7292759;19;20222;-89
2023/10/11 09:18:17;;;;;;;16.20;7.87;;;22.80;99.90;;;;;;7281820;19;20281;-89
2023/10/11 09:21:15;;;;;;;23.20;8.03;;;23.10;99.90;;;;;;7298771;19;20200;-90
2023/10/11 09:23:39;;;;;;;21.53;8.13;;;23.20;99.90;;;;;;7297348;19;20196;-90
2023/10/11 09:26:05;;;;;;;20.00;8.00;;;23.40;99.90;;;;;;7300726;19;20193;-90
2023/10/11 09:28:40;;;;;;;15.50;7.80;;;23.50;99.90;;;;;;7299307;19;20296;-90
2023/10/11 09:31:19;;;;;;;19.57;8.70;;;23.40;99.90;;;;;;7299188;19;20279;-89
2023/10/11 09:33:50;;;;;;;19.80;8.30;;;23.30;99.90;;;;;;7198156;19;2004607;-90
2023/10/11 09:36:20;;;;;;;19.43;8.00;;;23.40;99.90;;;;;;7301355;19;20205;-90
2023/10/11 09:38:54;;;;;;;22.53;9.63;;;23.40;99.90;;;;;;7299978;19;20242;-89
2023/10/11 09:41:38;;;;;;;22.93;9.23;;;23.20;99.90;;;;;;7301945;19;20189;-89
2023/10/11 09:44:06;;;;;;;21.53;9.40;;;23.40;99.90;;;;;;7292858;19;20224;-90
2023/10/11 09:46:34;;;;;;;18.17;8.27;;;23.60;99.90;;;;;;7291443;19;20224;-90
2023/10/11 09:49:02;;;;;;;21.97;9.90;;;24.20;99.90;;;;;;7292704;19;20190;-90
2023/10/11 09:51:29;;;;;;;22.95;9.45;;;25.00;99.90;;;;;;7291965;19;20197;-90
2023/10/11 09:54:01;;;;;;;18.83;9.25;;;25.90;99.90;;;;;;7290940;19;20188;-90
2023/10/11 09:56:36;;;;;;;18.08;9.25;;;26.20;99.90;;;;;;7289021;19;20224;-90
2023/10/11 09:59:19;;;;;;;20.30;9.25;;;26.50;99.90;;;;;;7289031;19;20189;-89
2023/10/11 10:02:07;;;;;;;13.75;8.10;;;26.80;99.90;;;;;;7189490;19;2004481;-90
2023/10/11 10:04:51;;;;;;;17.45;8.20;;;27.40;99.90;;;;;;7291479;19;20196;-90
2023/10/11 10:07:24;;;;;;;18.67;8.98;;;27.90;99.90;;;;;;7189220;19;2004834;-90
2023/10/11 10:09:52;;;;;;;17.67;9.40;;;27.90;99.90;;;;;;7291148;19;20200;-91
2023/10/11 10:12:22;;;;;;;19.10;9.32;;;27.60;99.90;;;;;;7289116;19;20200;-90
2023/10/11 10:15:00;;;;;;;18.02;9.10;;;27.40;99.90;;;;;;7290954;19;20232;-90
2023/10/11 10:17:28;;;;;;;16.00;9.02;;;27.90;99.90;;;;;;7288605;19;20213;-90
2023/10/11 10:20:00;;;;;;;17.33;8.57;;;28.40;99.90;;;;;;7290665;19;20197;-90
2023/10/11 10:22:32;;;;;;;16.65;8.63;;;29.00;99.90;;;;;;7291369;19;20185;-91
2023/10/11 10:25:18;;;;;;;23.23;8.85;;;30.20;99.90;;;;;;7291744;19;20252;-90
2023/10/11 10:27:52;;;;;;;20.77;8.82;;;30.70;99.90;;;;;;7289772;19;20207;-91
2023/10/11 10:30:21;;;;;;;16.88;8.48;;;30.80;99.90;;;;;;7290896;19;20643;-90
2023/10/11 10:33:18;;;;;;;16.75;8.57;;;30.90;99.90;;;;;;7289127;19;20180;-90
2023/10/11 10:35:44;;;;;;;19.58;9.13;;;30.80;99.90;;;;;;7269082;19;20195;-91
2023/10/11 10:38:10;;;;;;;16.35;8.75;;;31.40;99.70;;;;;;7300358;19;20542;-90
2023/10/11 10:40:45;;;;;;;14.43;7.63;;;31.90;99.40;;;;;;7313664;19;20192;-90
2023/10/11 10:43:23;;;;;;;18.30;8.70;;;31.90;98.40;;;;;;7272881;19;20206;-90
2023/10/11 10:45:50;;;;;;;19.17;7.35;;;32.40;96.70;;;;;;7290316;19;20192;-91
2023/10/11 10:48:23;;;;;;;16.70;8.15;;;32.90;96.50;;;;;;7292240;19;20232;-91
2023/10/11 10:50:52;;;;;;;15.68;7.82;;;32.50;95.10;;;;;;7291098;19;20577;-91
2023/10/11 10:53:22;;;;;;;16.38;8.40;;;32.40;94.10;;;;;;7290993;19;20196;-90
2023/10/11 10:55:48;;;;;;;16.48;8.43;;;32.40;94.50;;;;;;7291636;19;20192;-91
2023/10/11 10:58:22;;;;;;;21.70;8.38;;;32.20;93.30;;;;;;7289560;19;20196;-91
2023/10/11 11:00:54;;;;;;;20.75;8.48;;;32.10;93.10;;;;;;7290053;19;20192;-91
2023/10/11 11:03:22;;;;;;;17.77;8.73;;;31.90;93.80;;;;;;7289432;19;20209;-90
2023/10/11 11:05:56;;;;;;;17.58;8.93;;;32.20;93.30;;;;;;7287491;19;20184;-91
2023/10/11 11:08:27;;;;;;;18.60;8.50;;;32.10;93.10;;;;;;7291078;19;20196;-91
2023/10/11 11:11:19;;;;;;;16.48;7.53;;;32.20;92.30;;;;;;7291122;19;20520;-91
2023/10/11 11:13:49;;;;;;;15.43;8.23;;;32.40;92.00;;;;;;7187500;19;2004603;-90
2023/10/11 11:16:19;;;;;;;19.45;7.32;;;32.60;91.50;;;;;;7291562;19;20908;-91
2023/10/11 11:18:48;;;;;;;17.00;7.78;;;33.10;90.90;;;;;;7289135;19;20660;-91
2023/10/11 11:21:19;;;;;;;16.73;7.15;;;33.40;90.20;;;;;;7289604;19;20205;-92
2023/10/11 11:23:49;;;;;;;16.27;7.43;;;33.90;90.60;;;;;;7289567;19;20227;-91
2023/10/11 11:26:18;;;;;;;16.70;7.85;;;34.20;87.20;;;;;;7288981;19;20220;-89
2023/10/11 11:28:47;;;;;;;16.95;6.57;;;33.80;87.30;;;;;;7289514;19;20204;-88
2023/10/11 11:31:30;;;;;;;15.48;6.63;;;33.70;86.80;;;;;;7288704;19;20181;-88
2023/10/11 11:34:12;;;;;;;16.35;6.75;;;33.30;85.30;;;;;;7289199;19;20195;-89
2023/10/11 11:36:41;;;;;;;15.98;6.25;;;32.50;86.00;;;;;;7289533;19;20528;-89
2023/10/11 11:39:28;;;;;;;15.95;7.10;;;32.30;86.10;;;;;;7287645;19;20219;-89
2023/10/11 11:41:57;;;;;;;14.23;6.75;;;32.50;86.10;;;;;;7190556;19;2004557;-88
2023/10/11 11:44:31;;;;;;;17.83;6.82;;;32.80;88.90;;;;;;7289964;19;20193;-89
2023/10/11 11:47:04;;;;;;;16.05;6.22;;;33.00;86.50;;;;;;7288167;19;20197;-90
2023/10/11 11:49:29;;;;;;;16.13;5.70;;;32.40;84.60;;;;;;7288544;19;20325;-89
2023/10/11 11:51:55;;;;;;;15.73;5.78;;;32.40;85.80;;;;;;7287500;19;21012;-90
2023/10/11 11:54:26;;;;;;;13.88;6.00;;;32.80;85.90;;;;;;7288174;19;20532;-89
2023/10/11 11:56:55;;;;;;;14.05;5.57;;;33.30;87.10;;;;;;7285724;19;20301;-88
2023/10/11 11:59:22;;;;;;;12.32;5.80;;;33.60;84.30;;;;;;7287062;19;20189;-88
2023/10/11 12:02:01;;;;;;;18.42;6.15;;;33.30;83.50;;;;;;7287891;19;20192;-90
2023/10/11 12:04:32;;;;;;;16.92;5.72;;;32.60;84.60;;;;;;7289034;19;20651;-90
2023/10/11 12:07:09;;;;;;;14.05;5.90;;;31.80;83.20;;;;;;7287832;19;20656;-89
2023/10/11 12:09:37;;;;;;;12.68;5.43;;;30.90;86.80;;;;;;7289023;19;20196;-90
2023/10/11 12:12:05;;;;;;;15.52;6.20;;;30.40;89.00;;;;;;7287440;19;20200;-89
2023/10/11 12:14:37;;;;;;;15.82;5.45;;;30.10;90.30;;;;;;7287940;19;20189;-90
2023/10/11 12:17:09;;;;;;;17.27;6.03;;;29.70;90.70;;;;;;7288125;19;20271;-89
2023/10/11 12:19:40;;;;;;;19.30;6.63;;;29.40;91.30;;;;;;7287385;19;20271;-89
2023/10/11 12:22:13;;;;;;;16.42;5.78;;;29.10;91.50;;;;;;7286543;19;20709;-89
2023/10/11 12:24:44;;;;;;;14.48;5.13;;;28.80;91.70;;;;;;7286992;19;20256;-89
2023/10/11 12:27:11;;;;;;;21.77;5.80;;;28.80;92.70;;;;;;7285848;19;20888;-89
2023/10/11 12:29:38;;;;;;;13.77;5.50;;;28.80;92.30;;;;;;7309444;19;20185;-89
2023/10/11 12:32:07;;;;;;;13.18;5.47;;;28.70;92.50;;;;;;7286437;19;20192;-90
2023/10/11 12:34:33;;;;;;;12.75;5.47;;;28.60;92.90;;;;;;7287745;19;20193;-89
2023/10/11 12:37:02;;;;;;;12.38;4.90;;;28.50;93.10;;;;;;7285900;19;20199;-89
2023/10/11 12:39:33;;;;;;;14.65;5.65;;;28.20;92.60;;;;;;7285092;19;20197;-89
2023/10/11 12:42:02;;;;;;;13.75;5.55;;;28.10;92.40;;;;;;7287409;19;20555;-89
2023/10/11 12:44:30;;;;;;;15.60;5.70;;;27.70;94.00;;;;;;7286275;19;20254;-89
2023/10/11 12:47:00;;;;;;;16.73;5.28;;;27.70;94.90;;;;;;7286339;19;20224;-89
2023/10/11 12:49:27;;;;;;;15.68;5.38;;;27.60;94.20;;;;;;7285983;19;20567;-89
2023/10/11 12:51:53;;;;;;;16.88;6.03;;;27.70;95.00;;;;;;7285717;19;20199;-89
2023/10/11 12:54:22;;;;;;;16.13;5.82;;;27.80;94.60;;;;;;7285836;19;20193;-89
2023/10/11 12:56:48;;;;;;;12.27;5.10;;;27.60;94.80;;;;;;7285797;19;20273;-90
2023/10/11 12:59:14;;;;;;;19.77;6.00;;;27.50;95.50;;;;;;7286026;19;20193;-91
2023/10/11 13:01:52;;;;;;;14.57;5.30;;;27.40;95.50;;;;;;7302697;19;20209;-89
2023/10/11 13:04:30;;;;;;;19.70;5.53;;;27.20;96.20;;;;;;7286917;19;20205;-89
2023/10/11 13:06:59;;;;;;;15.95;5.65;;;27.20;96.40;;;;;;7285771;19;20222;-88
2023/10/11 13:09:29;;;;;;;15.98;5.65;;;27.10;97.40;;;;;;7286889;19;20660;-89
2023/10/11 13:11:56;;;;;;;14.02;5.30;;;27.00;97.30;;;;;;7285842;19;20644;-89
2023/10/11 13:14:22;;;;;;;14.70;5.70;;;27.00;98.20;;;;;;7284404;19;20192;-88
2023/10/11 13:16:54;;;;;;;17.42;5.78;;;27.10;98.40;;;;;;7285869;19;20192;-88
2023/10/11 13:19:26;;;;;;;14.48;5.15;;;27.10;98.80;;;;;;7285894;19;20193;-89
2023/10/11 13:21:53;;;;;;;16.52;5.55;;;27.10;98.80;;;;;;7286505;19;20683;-88
2023/10/11 13:24:26;;;;;;;14.90;5.20;;;27.30;99.30;;;;;;7282806;19;20188;-90
2023/10/11 13:26:54;;;;;;;15.45;5.45;;;27.20;98.90;;;;;;7281858;19;20189;-89
2023/10/11 13:29:21;;;;;;;16.42;5.50;;;27.20;99.90;;;;;;7283931;19;20181;-90
2023/10/11 13:31:48;;;;;;;13.15;5.85;;;27.10;99.80;;;;;;7284261;19;20200;-89
2023/10/11 13:34:16;;;;;;;13.48;5.53;;;26.90;99.90;;;;;;7292390;19;20177;-89
2023/10/11 13:36:42;;;;;;;11.18;5.13;;;26.90;99.90;;;;;;7295842;19;20205;-90
2023/10/11 13:39:27;;;;;;;14.60;5.05;;;26.80;99.90;;;;;;7312247;19;20185;-89
2023/10/11 13:42:14;;;;;;;11.15;5.10;;;26.80;99.90;;;;;;7190858;19;2004565;-90
2023/10/11 13:44:43;;;;;;;14.40;5.43;;;26.80;99.90;;;;;;7292548;19;20785;-89
2023/10/11 13:47:09;;;;;;;14.63;5.03;;;26.60;99.90;;;;;;7291151;19;20184;-89
2023/10/11 13:49:37;;;;;;;10.60;4.60;;;26.60;99.90;;;;;;7292817;19;20195;-89
2023/10/11 13:52:03;;;;;;;15.52;5.07;;;26.60;99.90;;;;;;7290987;19;20220;-88
2023/10/11 13:54:49;;;;;;;14.35;4.90;;;26.60;99.90;;;;;;7288990;19;20177;-90
2023/10/11 13:57:22;;;;;;;14.35;5.18;;;26.30;99.90;;;;;;7290779;19;20189;-89
2023/10/11 13:59:50;;;;;;;13.00;4.95;;;26.10;99.90;;;;;;7290869;19;20201;-89
2023/10/11 14:02:37;;;;;;;11.57;4.70;;;25.90;99.90;;;;;;7291378;19;20706;-90
2023/10/11 14:05:13;;;;;;;13.93;5.32;;;25.90;99.90;;;;;;7290757;19;20193;-88
2023/10/11 14:10:38;;;;;;;12.75;5.18;;;25.60;99.90;;;;;;7189050;19;2004574;-89
2023/10/11 14:13:11;;;;;;;20.15;5.93;;;25.30;99.90;;;;;;7290002;19;20219;-89